Alexander City, Alabama
Current Conditions -  °F | °C
As of 8:15 AM on Thursday 27 Nov 2014 (Local Time) from KALX Reporting Station
Clear Clear  
Wind Chill: 40°   Ceiling: Unl
Heat Index: 43°   Visibility: 10mi
Dew Point: 31°   Wind: 6mph
Humidity: 63%   Direction: 280°W
Pressure: 30.31"   Gusts: NA
Location:  32.94°N, 85.95°W
Report Text: KALX 271415Z AUTO 28005KT 10SM CLR 06/00 A3031 RMK AO2 T00621004
Loading
Personal Weather Stations






























Interactive Weather Map New forecast layout! Learn more

10-Day Weather Forecast

Advertisements
Track Severe Weather on mobile